Forside
METAR-TAF:

METAR-TAF

Lufthavne :

Trollhättan-Vänersborg, Sverige

Breddekreds: 58-19N, længdekreds: 012-21E, højde: 41 m

Aktuelle vejr

Denne rapport blev lavet for 26 minutter siden, kl. 10:20 UTC
Vind 2 kt fra varierende retninger
Temperatur 24°C
Fugtighed 78%
Tryk 1006 hPa
Sigt 10 km eller mere
let regn

METAR: ESGT 161020Z AUTO VRB02KT 9999 -RA FEW049/// BKN100/// 24/20 Q1006 RERA

Tid: 12:46 (10:46 UTC)

Vejrudsigter

Denne rapport blev lavet for 4 timer og 54 minutter siden, kl. 05:52 UTC
Foreløbig gælder fra 16 på 06 UTC til 16 på 08 UTC
Vind 5 kt fra nordøst
Sigt 10 km eller mere
Spredte skyer i en højde af 4000 ft
Sandsynlighed 40%
fra 16 på 06 UTC til 16 på 08 UTC
Sigt: 4000 m
Brudte skyer i en højde af 4000 ft, Cumulonimbus.
regnbyger

TAF: ESGT 160552Z 1606/1608 05005KT 9999 SCT040 PROB40 1606/1608 4000 SHRA BKN040CB

Vejrobservationer og prognoser fra mere end 4000 lufthavne (METAR og TAF).

De gule og røde prikker repræsenterer de meteorologiske stationer.

Flyt musen over at se navnet på stationen.

Så klik over at se vejr observationer og prognoser.

At skifte det kort: Klik på de grønne knapper med et sort kors for at zoome ind; på den grønne knap med en bindestreg for at zoome ud; eller på de grønne pile for tilstødende kort.


METAR-TAF: